Time;durP1;ratioP1;P1;durP2;ratioP2;P2;SDS_P1;SDS_P2;PMS_P1;PMS_P2;Temp;Humidity;BMP_temperature;BMP_pressure;BME280_temperature;BME280_humidity;BME280_pressure;Samples;Min_cycle;Max_cycle;Signal;HPM_P1;HPM_P2
2021/03/16 00:01:25;;;;;;;;;;;;;;;21.79;29.40;95786.50;5063127;28;656;-75
2021/03/16 00:03:58;;;;;;;;;;;;;;;21.85;29.76;95810.75;5045257;28;1973;-75
2021/03/16 00:06:42;;;;;;;;;;;;;;;21.53;30.25;95806.28;5063311;28;682;-75
2021/03/16 00:09:08;;;;;;;;;;;;;;;21.61;30.05;95818.75;5062650;28;925;-75
2021/03/16 00:11:33;;;;;;;;;;;;;;;22.12;29.34;95822.88;5063135;28;904;-76
2021/03/16 00:13:59;;;;;;;;;;;;;;;22.54;28.45;95818.59;5062909;28;822;-76
2021/03/16 00:16:26;;;;;;;;;;;;;;;22.73;28.11;95813.31;5062943;28;1256;-75
2021/03/16 00:18:52;;;;;;;;;;;;;;;22.67;28.18;95816.09;5062746;28;591;-75
2021/03/16 00:21:17;;;;;;;;;;;;;;;22.20;28.77;95812.66;5062597;28;642;-75
2021/03/16 00:23:43;;;;;;;;;;;;;;;21.26;30.17;95796.94;5062181;28;1961;-75
2021/03/16 00:26:08;;;;;;;;;;;;;;;21.82;29.11;95788.34;5062852;28;885;-75
2021/03/16 00:28:34;;;;;;;;;;;;;;;21.87;29.37;95795.34;5062434;28;994;-75
2021/03/16 00:30:59;;;;;;;;;;;;;;;21.74;29.39;95799.31;5062938;28;579;-76
2021/03/16 00:33:24;;;;;;;;;;;;;;;21.81;29.36;95801.72;5062271;28;630;-76
2021/03/16 00:35:50;;;;;;;;;;;;;;;21.60;30.14;95777.53;5062956;28;697;-75
2021/03/16 00:38:16;;;;;;;;;;;;;;;21.79;30.25;95778.78;5062043;28;956;-75
2021/03/16 00:40:41;;;;;;;;;;;;;;;22.37;28.92;95775.94;5062644;28;993;-75
2021/03/16 00:43:07;;;;;;;;;;;;;;;22.54;28.73;95774.03;5062523;28;1906;-76
2021/03/16 00:45:32;;;;;;;;;;;;;;;22.18;29.04;95781.22;5062560;28;638;-75
2021/03/16 00:47:58;;;;;;;;;;;;;;;21.70;29.88;95776.09;5062316;28;665;-76
2021/03/16 00:50:24;;;;;;;;;;;;;;;21.53;29.99;95780.81;5045313;28;1254;-75
2021/03/16 00:52:50;;;;;;;;;;;;;;;21.68;29.62;95801.31;5062002;28;1088;-75
2021/03/16 00:55:15;;;;;;;;;;;;;;;21.79;29.82;95794.97;5062031;28;888;-75
2021/03/16 00:57:41;;;;;;;;;;;;;;;21.64;29.79;95795.09;5062238;28;998;-75
2021/03/16 01:00:07;;;;;;;;;;;;;;;21.54;30.01;95793.69;5061961;28;649;-76
2021/03/16 01:02:33;;;;;;;;;;;;;;;21.64;30.06;95800.75;5062307;28;1982;-75
2021/03/16 01:04:58;;;;;;;;;;;;;;;21.47;30.07;95802.63;5061976;28;649;-76
2021/03/16 01:07:24;;;;;;;;;;;;;;;21.58;29.81;95802.75;5044601;28;925;-75
2021/03/16 01:09:49;;;;;;;;;;;;;;;21.46;30.08;95823.72;5061717;28;864;-75
2021/03/16 01:12:16;;;;;;;;;;;;;;;22.07;29.51;95832.06;5061796;28;827;-75
2021/03/16 01:14:43;;;;;;;;;;;;;;;22.46;28.95;95840.16;5061600;28;1102;-75
2021/03/16 01:17:09;;;;;;;;;;;;;;;22.75;28.25;95834.22;5062313;28;643;-75
2021/03/16 01:19:34;;;;;;;;;;;;;;;22.14;28.98;95834.47;5061909;28;645;-75
2021/03/16 01:22:00;;;;;;;;;;;;;;;22.05;29.13;95817.63;5061544;28;836;-75
2021/03/16 01:24:26;;;;;;;;;;;;;;;21.82;29.57;95822.31;5061118;28;1910;-75
2021/03/16 01:26:51;;;;;;;;;;;;;;;21.74;29.81;95826.84;5061623;28;860;-75
2021/03/16 01:29:16;;;;;;;;;;;;;;;21.78;29.79;95821.75;5061394;28;606;-75
2021/03/16 01:31:42;;;;;;;;;;;;;;;21.63;29.94;95816.19;5061670;28;694;-75
2021/03/16 01:34:07;;;;;;;;;;;;;;;21.75;30.36;95823.50;5060535;28;669;-75
2021/03/16 01:36:33;;;;;;;;;;;;;;;22.28;29.16;95830.75;5061285;28;963;-76
2021/03/16 01:38:58;;;;;;;;;;;;;;;22.48;29.09;95831.94;5060940;28;906;-76
2021/03/16 01:41:24;;;;;;;;;;;;;;;22.40;28.65;95836.50;5061441;28;1004;-75
2021/03/16 01:43:49;;;;;;;;;;;;;;;22.13;29.32;95837.81;5061210;28;1909;-75
2021/03/16 01:46:16;;;;;;;;;;;;;;;21.92;29.19;95834.25;5061664;28;744;-76
2021/03/16 01:48:42;;;;;;;;;;;;;;;21.30;30.24;95828.66;5043684;28;604;-75
2021/03/16 01:51:09;;;;;;;;;;;;;;;21.77;29.67;95826.63;5061236;28;1199;-75
2021/03/16 01:53:35;;;;;;;;;;;;;;;21.76;30.04;95836.41;5060618;28;830;-75
2021/03/16 01:56:00;;;;;;;;;;;;;;;21.72;30.09;95844.34;5061222;28;921;-76
2021/03/16 01:58:44;;;;;;;;;;;;;;;21.49;30.60;95831.19;5060856;28;632;-76
2021/03/16 02:01:28;;;;;;;;;;;;;;;21.64;30.37;95829.03;5046327;28;577;-75
2021/03/16 02:04:12;;;;;;;;;;;;;;;21.68;30.02;95834.50;5060607;28;1906;-76
2021/03/16 02:07:11;;;;;;;;;;;;;;;21.59;30.34;95832.59;5046368;28;871;-75
2021/03/16 02:09:55;;;;;;;;;;;;;;;21.57;30.54;95826.66;5045613;28;828;-75
2021/03/16 02:12:59;;;;;;;;;;;;;;;21.56;30.22;95823.06;5060903;28;649;-74
2021/03/16 02:15:43;;;;;;;;;;;;;;;21.53;30.40;95824.03;5040207;28;1015;-74
2021/03/16 02:18:27;;;;;;;;;;;;;;;21.66;30.16;95829.34;5040448;28;554;-74
2021/03/16 02:21:12;;;;;;;;;;;;;;;21.68;30.32;95834.50;5026322;28;607;-75
2021/03/16 02:24:05;;;;;;;;;;;;;;;21.55;30.41;95826.38;5025582;28;1898;-75
2021/03/16 02:27:08;;;;;;;;;;;;;;;21.49;30.31;95839.69;5040292;28;933;-74
2021/03/16 02:29:55;;;;;;;;;;;;;;;22.10;29.35;95825.41;5040633;28;580;-75
2021/03/16 02:32:39;;;;;;;;;;;;;;;22.54;28.65;95832.78;5025843;28;689;-75
2021/03/16 02:35:23;;;;;;;;;;;;;;;22.34;28.49;95834.41;5040386;28;646;-75
2021/03/16 02:38:07;;;;;;;;;;;;;;;21.79;29.64;95823.28;5040269;28;567;-75
2021/03/16 02:40:52;;;;;;;;;;;;;;;21.71;29.90;95820.13;5025855;28;819;-75
2021/03/16 02:43:35;;;;;;;;;;;;;;;21.67;29.75;95805.41;5025079;28;1955;-75
2021/03/16 02:46:19;;;;;;;;;;;;;;;21.55;30.15;95803.72;5040604;28;628;-75
2021/03/16 02:49:03;;;;;;;;;;;;;;;22.13;29.50;95812.34;5025440;28;615;-75
2021/03/16 02:51:47;;;;;;;;;;;;;;;22.56;28.53;95810.34;5040367;28;682;-75
2021/03/16 02:54:32;;;;;;;;;;;;;;;22.28;28.62;95808.09;5040043;28;616;-75
2021/03/16 02:57:16;;;;;;;;;;;;;;;22.11;28.94;95809.97;5039845;28;1059;-75
2021/03/16 03:00:01;;;;;;;;;;;;;;;21.74;29.22;95821.97;5025178;28;867;-75
2021/03/16 03:02:45;;;;;;;;;;;;;;;21.74;29.25;95819.13;5025756;28;1902;-75
2021/03/16 03:05:29;;;;;;;;;;;;;;;21.53;29.88;95818.38;5039883;28;606;-75
2021/03/16 03:08:13;;;;;;;;;;;;;;;21.81;30.00;95818.69;5040082;28;436;-75
2021/03/16 03:10:57;;;;;;;;;;;;;;;22.40;28.84;95813.84;5040296;28;484;-74
2021/03/16 03:13:41;;;;;;;;;;;;;;;22.47;28.59;95824.72;5024996;28;854;-75
2021/03/16 03:16:26;;;;;;;;;;;;;;;22.40;28.18;95816.69;5025133;28;1014;-75
2021/03/16 03:19:10;;;;;;;;;;;;;;;21.97;28.98;95827.88;5025458;28;651;-75
2021/03/16 03:22:01;;;;;;;;;;;;;;;21.66;29.38;95817.22;5040358;28;480;-75
2021/03/16 03:25:05;;;;;;;;;;;;;;;21.69;29.31;95819.06;5039680;28;1914;-75
2021/03/16 03:27:50;;;;;;;;;;;;;;;21.61;29.67;95824.41;5039762;28;608;-75
2021/03/16 03:30:35;;;;;;;;;;;;;;;21.91;29.85;95835.50;5025550;28;678;-75
2021/03/16 03:33:19;;;;;;;;;;;;;;;22.59;28.45;95837.69;5025117;28;508;-75
2021/03/16 03:36:03;;;;;;;;;;;;;;;22.06;28.82;95825.63;5025295;28;910;-75
2021/03/16 03:38:47;;;;;;;;;;;;;;;21.68;29.12;95835.28;5024687;28;847;-75
2021/03/16 03:41:31;;;;;;;;;;;;;;;21.87;29.25;95840.63;5025302;28;582;-75
2021/03/16 03:44:15;;;;;;;;;;;;;;;22.12;28.92;95856.06;5024937;28;1973;-75
2021/03/16 03:46:59;;;;;;;;;;;;;;;22.43;28.64;95853.25;5039628;28;579;-75
2021/03/16 03:49:43;;;;;;;;;;;;;;;22.27;28.22;95854.69;5039505;28;629;-75
2021/03/16 03:52:27;;;;;;;;;;;;;;;21.88;28.82;95857.09;5024766;28;815;-75
2021/03/16 03:55:11;;;;;;;;;;;;;;;21.83;29.12;95847.28;5024624;28;854;-74
2021/03/16 03:57:55;;;;;;;;;;;;;;;21.83;29.29;95835.19;5027867;28;613;-74
2021/03/16 04:00:39;;;;;;;;;;;;;;;21.73;29.33;95843.06;5043067;28;658;-74
2021/03/16 04:03:23;;;;;;;;;;;;;;;21.53;29.64;95843.06;5028288;28;1891;-74
2021/03/16 04:06:07;;;;;;;;;;;;;;;21.44;29.82;95849.66;5043075;28;484;-74
2021/03/16 04:08:51;;;;;;;;;;;;;;;21.91;29.15;95846.81;5042674;28;916;-74
2021/03/16 04:11:35;;;;;;;;;;;;;;;21.70;29.59;95849.69;5042596;28;864;-74
2021/03/16 04:14:19;;;;;;;;;;;;;;;21.84;29.42;95854.50;5042671;28;1159;-75
2021/03/16 04:17:03;;;;;;;;;;;;;;;21.84;29.33;95854.50;5042765;28;509;-75
2021/03/16 04:19:50;;;;;;;;;;;;;;;21.93;29.29;95858.44;5028028;28;615;-74
2021/03/16 04:22:34;;;;;;;;;;;;;;;21.71;29.11;95854.09;5042454;28;1906;-74
2021/03/16 04:25:18;;;;;;;;;;;;;;;21.58;29.50;95854.44;5042437;28;826;-74
2021/03/16 04:28:02;;;;;;;;;;;;;;;21.39;29.68;95864.50;5042187;28;842;-74
2021/03/16 04:30:46;;;;;;;;;;;;;;;21.78;29.15;95856.50;5042429;28;571;-73
2021/03/16 04:33:30;;;;;;;;;;;;;;;21.45;29.85;95856.09;5042500;28;572;-74
2021/03/16 04:36:14;;;;;;;;;;;;;;;22.01;28.71;95853.88;5042398;28;641;-75
2021/03/16 04:38:58;;;;;;;;;;;;;;;21.77;28.82;95854.94;5042312;28;496;-75
2021/03/16 04:41:42;;;;;;;;;;;;;;;21.31;29.93;95857.72;5042222;28;922;-75
2021/03/16 04:44:26;;;;;;;;;;;;;;;22.58;28.16;95867.31;5041741;28;2249;-73
2021/03/16 04:47:10;;;;;;;;;;;;;;;22.41;27.43;95861.50;5042484;28;646;-74
2021/03/16 04:49:53;;;;;;;;;;;;;;;22.07;28.15;95864.00;5042065;28;574;-74
2021/03/16 04:52:37;;;;;;;;;;;;;;;21.80;28.37;95855.97;5033431;28;1365;-75
2021/03/16 04:55:21;;;;;;;;;;;;;;;21.47;29.65;95856.38;5080451;28;1408;-75
2021/03/16 04:58:05;;;;;;;;;;;;;;;21.96;28.82;95860.25;5061704;28;682;-74
2021/03/16 05:00:49;;;;;;;;;;;;;;;21.96;28.81;95854.59;5061855;28;1063;-74
2021/03/16 05:03:33;;;;;;;;;;;;;;;21.30;29.97;95859.78;5061363;28;1922;-75
2021/03/16 05:06:17;;;;;;;;;;;;;;;21.56;29.37;95851.34;5061809;28;571;-74
2021/03/16 05:09:01;;;;;;;;;;;;;;;21.98;28.37;95846.41;5061540;28;556;-74
2021/03/16 05:11:45;;;;;;;;;;;;;;;21.70;29.13;95838.38;5061840;28;680;-75
2021/03/16 05:14:28;;;;;;;;;;;;;;;21.75;28.93;95846.16;5061296;28;1116;-74
2021/03/16 05:17:12;;;;;;;;;;;;;;;22.19;28.13;95856.41;5061582;28;809;-74
2021/03/16 05:19:56;;;;;;;;;;;;;;;21.89;28.62;95849.38;5061348;28;916;-75
2021/03/16 05:22:40;;;;;;;;;;;;;;;22.15;28.19;95855.84;5062408;28;1906;-74
2021/03/16 05:25:24;;;;;;;;;;;;;;;21.92;28.35;95854.84;5078789;28;1151;-74
2021/03/16 05:28:08;;;;;;;;;;;;;;;21.92;28.71;95849.19;5069083;28;1146;-74
2021/03/16 05:30:52;;;;;;;;;;;;;;;22.10;28.27;95848.06;5079791;28;1317;-74
2021/03/16 05:33:36;;;;;;;;;;;;;;;21.88;28.29;95842.19;5080915;28;913;-74
2021/03/16 05:36:20;;;;;;;;;;;;;;;21.26;29.53;95858.41;5080874;28;920;-75
2021/03/16 05:39:04;;;;;;;;;;;;;;;21.85;28.67;95850.38;5081259;28;661;-74
2021/03/16 05:41:49;;;;;;;;;;;;;;;22.68;26.86;95860.16;5081166;28;591;-74
2021/03/16 05:44:33;;;;;;;;;;;;;;;21.76;28.55;95864.72;5080987;28;1906;-75
2021/03/16 05:47:17;;;;;;;;;;;;;;;21.84;28.00;95868.66;5081118;28;691;-74
2021/03/16 05:50:00;;;;;;;;;;;;;;;21.42;29.45;95862.75;5066023;28;979;-74
2021/03/16 05:52:45;;;;;;;;;;;;;;;22.53;27.56;95863.13;5059473;28;1421;-74
2021/03/16 05:55:29;;;;;;;;;;;;;;;22.02;28.08;95869.59;5060970;28;733;-74
2021/03/16 05:58:13;;;;;;;;;;;;;;;21.81;28.42;95861.16;5060767;28;469;-74
2021/03/16 06:00:56;;;;;;;;;;;;;;;21.87;28.16;95864.06;5060826;28;574;-74
2021/03/16 06:03:40;;;;;;;;;;;;;;;21.59;28.68;95860.88;5060505;28;1905;-74
2021/03/16 06:06:24;;;;;;;;;;;;;;;21.83;28.32;95858.59;5040565;28;842;-75
2021/03/16 06:09:09;;;;;;;;;;;;;;;21.69;28.35;95859.47;5040472;28;890;-74
2021/03/16 06:11:53;;;;;;;;;;;;;;;21.89;28.21;95866.38;5042781;28;1511;-74
2021/03/16 06:14:37;;;;;;;;;;;;;;;22.22;27.48;95872.41;5058343;28;1910;-74
2021/03/16 06:17:21;;;;;;;;;;;;;;;22.20;27.74;95868.53;5063285;28;1108;-74
2021/03/16 06:20:06;;;;;;;;;;;;;;;21.36;29.07;95867.56;5061907;28;1357;-74
2021/03/16 06:22:51;;;;;;;;;;;;;;;22.08;27.88;95878.94;5080240;28;1898;-74
2021/03/16 06:25:36;;;;;;;;;;;;;;;21.74;28.20;95872.91;5044501;28;1266;-75
2021/03/16 06:28:20;;;;;;;;;;;;;;;22.02;27.77;95880.91;5060431;28;580;-73
2021/03/16 06:31:04;;;;;;;;;;;;;;;21.50;28.74;95878.81;5060971;28;647;-74
2021/03/16 06:33:49;;;;;;;;;;;;;;;21.40;29.15;95882.25;5060095;28;635;-74
2021/03/16 06:36:34;;;;;;;;;;;;;;;21.36;28.77;95881.72;5061999;28;1471;-74
2021/03/16 06:39:18;;;;;;;;;;;;;;;21.14;29.00;95877.28;5079875;28;907;-74
2021/03/16 06:42:03;;;;;;;;;;;;;;;21.22;28.81;95883.28;5079842;28;924;-74
2021/03/16 06:44:56;;;;;;;;;;;;;;;21.48;28.66;95889.06;5080100;28;1926;-74
2021/03/16 06:47:41;;;;;;;;;;;;;;;21.74;28.28;95895.56;5065374;28;563;-74
2021/03/16 06:50:31;;;;;;;;;;;;;;;21.55;28.60;95905.59;5059931;28;636;-75
2021/03/16 06:53:21;;;;;;;;;;;;;;;21.70;28.22;95900.63;5059928;28;714;-74
2021/03/16 06:56:05;;;;;;;;;;;;;;;21.39;28.85;95903.34;5059773;28;1474;-74
2021/03/16 06:58:48;;;;;;;;;;;;;;;22.19;27.35;95918.72;5059503;28;888;-75
2021/03/16 07:01:33;;;;;;;;;;;;;;;22.04;27.60;95912.38;5060000;28;616;-74
2021/03/16 07:04:24;;;;;;;;;;;;;;;21.78;27.86;95910.28;5058694;28;1973;-73
2021/03/16 07:07:08;;;;;;;;;;;;;;;22.27;27.12;95919.84;5075567;28;1483;-75
2021/03/16 07:09:52;;;;;;;;;;;;;;;22.02;27.49;95915.69;5075005;28;1451;-74
2021/03/16 07:12:36;;;;;;;;;;;;;;;21.51;28.33;95925.63;5059593;28;803;-74
2021/03/16 07:15:21;;;;;;;;;;;;;;;22.23;27.10;95921.34;5044443;28;970;-75
2021/03/16 07:18:05;;;;;;;;;;;;;;;22.03;27.49;95922.16;5045252;28;680;-75
2021/03/16 07:20:50;;;;;;;;;;;;;;;22.29;27.26;95928.63;5059763;28;706;-75
2021/03/16 07:23:54;;;;;;;;;;;;;;;22.00;27.76;95928.78;5059745;28;1967;-75
2021/03/16 07:26:38;;;;;;;;;;;;;;;21.98;27.56;95922.84;5056769;28;1293;-76
2021/03/16 07:29:22;;;;;;;;;;;;;;;22.30;27.33;95926.56;5077970;28;1487;-76
2021/03/16 07:32:06;;;;;;;;;;;;;;;21.87;27.79;95926.34;5081318;28;865;-75
2021/03/16 07:34:51;;;;;;;;;;;;;;;21.57;28.46;95937.03;5069218;28;567;-75
2021/03/16 07:37:35;;;;;;;;;;;;;;;22.48;26.92;95922.59;5055168;28;543;-80
2021/03/16 07:40:19;;;;;;;;;;;;;;;22.12;27.47;95926.88;5083488;28;1467;-79
2021/03/16 07:43:07;;;;;;;;;;;;;;;23.32;25.86;95932.59;5070971;28;1906;-77
2021/03/16 07:45:51;;;;;;;;;;;;;;;23.19;25.98;95928.63;5083136;28;798;-76
2021/03/16 07:48:35;;;;;;;;;;;;;;;22.56;26.97;95937.91;5083133;28;926;-76
2021/03/16 07:51:21;;;;;;;;;;;;;;;22.87;26.29;95932.25;5066961;28;1429;-74
2021/03/16 07:54:05;;;;;;;;;;;;;;;22.63;26.60;95928.94;5068357;28;1456;-73
2021/03/16 07:56:59;;;;;;;;;;;;;;;22.65;27.03;95942.63;5083134;28;581;-73
2021/03/16 07:59:56;;;;;;;;;;;;;;;22.87;26.60;95943.56;5082372;28;1407;-74
2021/03/16 08:02:39;;;;;;;;;;;;;;;22.73;26.73;95950.16;5042680;28;1890;-74
2021/03/16 08:05:24;;;;;;;;;;;;;;;22.40;27.12;95955.53;5027713;28;873;-74
2021/03/16 08:08:26;;;;;;;;;;;;;;;22.34;27.44;95953.41;5043228;28;585;-74
2021/03/16 08:11:12;;;;;;;;;;;;;;;22.38;27.11;95958.84;5037579;28;1410;-74
2021/03/16 08:13:59;;;;;;;;;;;;;;;22.61;26.71;95959.84;5073780;28;1352;-74
2021/03/16 08:16:44;;;;;;;;;;;;;;;22.70;26.55;95962.50;5082436;28;854;-74
2021/03/16 08:19:35;;;;;;;;;;;;;;;22.25;27.23;95953.56;5082375;28;926;-74
2021/03/16 08:22:19;;;;;;;;;;;;;;;22.27;27.15;95953.81;5080967;28;1455;-74
2021/03/16 08:25:04;;;;;;;;;;;;;;;21.94;27.61;95959.09;5082572;28;604;-73
2021/03/16 08:27:48;;;;;;;;;;;;;;;22.41;26.92;95962.75;5082561;28;684;-73
2021/03/16 08:30:36;;;;;;;;;;;;;;;22.33;26.86;95968.84;5082670;28;592;-74
2021/03/16 08:33:20;;;;;;;;;;;;;;;21.65;27.98;95974.94;5079766;28;1381;-73
2021/03/16 08:36:04;;;;;;;;;;;;;;;22.19;27.26;95975.38;5081967;28;864;-74
2021/03/16 08:38:50;;;;;;;;;;;;;;;22.32;27.18;95972.94;5082551;28;552;-74
2021/03/16 08:41:34;;;;;;;;;;;;;;;22.30;27.04;95975.50;5064372;28;1448;-73
2021/03/16 08:44:18;;;;;;;;;;;;;;;22.36;26.73;95979.19;5081935;28;1906;-73
2021/03/16 08:47:15;;;;;;;;;;;;;;;22.29;27.19;95973.97;5078306;28;1309;-74
2021/03/16 08:49:59;;;;;;;;;;;;;;;22.22;26.97;95974.38;5081902;28;851;-74
2021/03/16 08:52:43;;;;;;;;;;;;;;;22.03;27.37;95984.44;5074626;28;856;-74
2021/03/16 08:55:28;;;;;;;;;;;;;;;22.10;27.22;95984.81;5050987;28;1440;-74
2021/03/16 08:58:12;;;;;;;;;;;;;;;21.91;27.75;95985.56;5082043;28;480;-74
2021/03/16 09:00:56;;;;;;;;;;;;;;;21.77;27.83;95987.97;5082199;28;484;-74
2021/03/16 09:03:40;;;;;;;;;;;;;;;22.04;27.54;95991.66;5064322;28;1902;-72
2021/03/16 09:06:24;;;;;;;;;;;;;;;21.89;27.62;95996.63;5059601;28;1059;-74
2021/03/16 09:09:08;;;;;;;;;;;;;;;21.81;27.50;95990.59;5061186;28;1671;-74
2021/03/16 09:11:52;;;;;;;;;;;;;;;21.72;28.00;95999.22;5061620;28;668;-74
2021/03/16 09:14:37;;;;;;;;;;;;;;;21.72;27.74;96005.66;5061728;28;939;-73
2021/03/16 09:17:22;;;;;;;;;;;;;;;21.71;27.79;96018.28;5061469;28;659;-74
2021/03/16 09:20:06;;;;;;;;;;;;;;;21.72;27.96;96019.81;5061990;28;692;-74
2021/03/16 09:22:52;;;;;;;;;;;;;;;21.68;27.72;96010.75;5041116;28;1972;-71
2021/03/16 09:25:37;;;;;;;;;;;;;;;21.84;27.54;96012.25;5040965;28;918;-73
2021/03/16 09:28:22;;;;;;;;;;;;;;;21.88;27.76;96009.22;5035717;28;655;-74
2021/03/16 09:31:06;;;;;;;;;;;;;;;21.74;27.86;95997.44;5056674;28;1717;-74
2021/03/16 09:33:50;;;;;;;;;;;;;;;21.38;28.19;96003.63;5046625;28;1707;-71
2021/03/16 09:36:34;;;;;;;;;;;;;;;20.96;29.29;96007.56;5046902;28;1544;-74
2021/03/16 09:39:25;;;;;;;;;;;;;;;22.34;26.86;96015.75;5055933;28;1011;-72
2021/03/16 09:42:11;;;;;;;;;;;;;;;22.63;26.69;96009.06;5059887;28;1067;-73
2021/03/16 09:44:40;;;;;;;;;;;;;;;22.48;26.74;96016.13;5060781;28;1984;-74
2021/03/16 09:47:06;;;;;;;;;;;;;;;22.35;26.75;96027.84;5060914;28;673;-74
2021/03/16 09:49:38;;;;;;;;;;;;;;;22.26;26.69;96036.50;5060789;28;718;-73
2021/03/16 09:52:04;;;;;;;;;;;;;;;22.05;27.28;96027.19;5060842;28;654;-74
2021/03/16 09:54:36;;;;;;;;;;;;;;;21.89;27.70;96030.59;5059773;28;1576;-74
2021/03/16 09:57:06;;;;;;;;;;;;;;;22.01;27.24;96037.94;5040864;28;839;-73
2021/03/16 09:59:39;;;;;;;;;;;;;;;21.91;27.69;96034.47;5040786;28;974;-74
2021/03/16 10:02:05;;;;;;;;;;;;;;;22.01;27.44;96037.94;5040664;28;639;-74
2021/03/16 10:04:41;;;;;;;;;;;;;;;21.77;27.80;96043.81;5041157;28;1922;-74
2021/03/16 10:07:07;;;;;;;;;;;;;;;21.89;27.56;96036.25;5041227;28;1704;-73
2021/03/16 10:09:38;;;;;;;;;;;;;;;21.91;27.37;96031.63;5060443;28;985;-74
2021/03/16 10:12:04;;;;;;;;;;;;;;;21.98;27.52;96039.72;5059763;28;976;-73
2021/03/16 10:14:29;;;;;;;;;;;;;;;22.04;27.38;96049.06;5059536;28;1131;-73
2021/03/16 10:16:55;;;;;;;;;;;;;;;21.69;27.69;96042.66;5060370;28;1588;-74
2021/03/16 10:19:21;;;;;;;;;;;;;;;22.01;27.35;96044.38;5060320;28;702;-74
2021/03/16 10:21:47;;;;;;;;;;;;;;;21.89;27.48;96045.53;5060671;28;710;-74
2021/03/16 10:24:12;;;;;;;;;;;;;;;21.79;27.78;96044.88;5059846;28;1906;-74
2021/03/16 10:26:39;;;;;;;;;;;;;;;21.24;28.38;96051.25;5059554;28;1554;-73
2021/03/16 10:29:11;;;;;;;;;;;;;;;21.71;27.86;96049.41;5060174;28;993;-74
2021/03/16 10:31:37;;;;;;;;;;;;;;;21.99;27.23;96044.13;5060294;28;698;-74
2021/03/16 10:34:02;;;;;;;;;;;;;;;21.58;27.85;96048.94;5060041;28;730;-73
2021/03/16 10:36:34;;;;;;;;;;;;;;;21.70;27.68;96047.81;5060352;28;674;-74
2021/03/16 10:38:59;;;;;;;;;;;;;;;21.71;27.54;96052.25;5059482;28;1633;-74
2021/03/16 10:41:25;;;;;;;;;;;;;;;22.35;26.93;96047.69;5059466;28;1601;-74
2021/03/16 10:43:50;;;;;;;;;;;;;;;22.40;26.91;96051.88;5059625;28;1984;-74
2021/03/16 10:46:16;;;;;;;;;;;;;;;22.50;26.40;96051.22;5059735;28;1620;-73
2021/03/16 10:48:41;;;;;;;;;;;;;;;22.04;26.77;96039.81;5060115;28;618;-74
2021/03/16 10:51:07;;;;;;;;;;;;;;;21.79;27.36;96039.22;5060049;28;1612;-74
2021/03/16 10:53:32;;;;;;;;;;;;;;;21.88;27.35;96040.38;5059475;28;1573;-74
2021/03/16 10:55:58;;;;;;;;;;;;;;;21.76;27.76;96045.88;5060096;28;831;-73
2021/03/16 10:58:23;;;;;;;;;;;;;;;21.79;27.78;96038.44;5059839;28;834;-74
2021/03/16 11:00:52;;;;;;;;;;;;;;;21.84;27.70;96041.34;5059818;28;555;-74
2021/03/16 11:03:18;;;;;;;;;;;;;;;21.94;27.48;96046.88;5042510;28;1979;-73
2021/03/16 11:05:43;;;;;;;;;;;;;;;21.81;27.76;96042.34;5061435;28;1589;-74
2021/03/16 11:08:10;;;;;;;;;;;;;;;21.86;27.50;96038.00;5066118;28;1055;-74
2021/03/16 11:10:35;;;;;;;;;;;;;;;21.74;27.57;96037.09;5066017;28;806;-73
2021/03/16 11:13:01;;;;;;;;;;;;;;;21.75;27.64;96037.84;5066240;28;1088;-74
2021/03/16 11:15:26;;;;;;;;;;;;;;;21.74;27.59;96041.97;5066301;28;1127;-73
2021/03/16 11:17:52;;;;;;;;;;;;;;;21.90;27.34;96043.47;5065993;28;1633;-74
2021/03/16 11:20:17;;;;;;;;;;;;;;;21.71;27.89;96055.06;5066223;28;650;-74
2021/03/16 11:22:43;;;;;;;;;;;;;;;21.81;27.56;96041.53;5066196;28;909;-74
2021/03/16 11:25:09;;;;;;;;;;;;;;;21.72;27.87;96048.13;5065958;28;1906;-74
2021/03/16 11:27:36;;;;;;;;;;;;;;;21.69;27.70;96048.31;5065592;28;1605;-74
2021/03/16 11:30:05;;;;;;;;;;;;;;;21.76;27.51;96048.72;5066203;28;618;-73
2021/03/16 11:32:31;;;;;;;;;;;;;;;21.72;27.54;96048.13;5066149;28;690;-74
2021/03/16 11:35:15;;;;;;;;;;;;;;;21.60;27.97;96049.22;5066124;28;558;-74
2021/03/16 11:37:59;;;;;;;;;;;;;;;21.54;28.02;96051.19;5065679;28;1625;-74
2021/03/16 11:40:43;;;;;;;;;;;;;;;21.46;28.04;96047.22;5066013;28;912;-74
2021/03/16 11:43:27;;;;;;;;;;;;;;;21.65;27.84;96045.69;5065984;28;1906;-74
2021/03/16 11:46:11;;;;;;;;;;;;;;;21.53;27.92;96049.63;5066032;28;702;-74
2021/03/16 11:48:54;;;;;;;;;;;;;;;21.78;27.91;96043.31;5065534;28;1632;-74
2021/03/16 11:51:38;;;;;;;;;;;;;;;22.34;26.93;96044.06;5065652;28;1640;-74
2021/03/16 11:54:22;;;;;;;;;;;;;;;22.61;26.34;96056.22;5065776;28;940;-74
2021/03/16 11:57:07;;;;;;;;;;;;;;;22.16;26.86;96049.25;5066038;28;904;-74
2021/03/16 11:59:51;;;;;;;;;;;;;;;21.91;27.32;96050.69;5065701;28;2068;-74
2021/03/16 12:02:35;;;;;;;;;;;;;;;21.84;27.55;96057.56;5065894;28;574;-74
2021/03/16 12:05:18;;;;;;;;;;;;;;;21.70;27.87;96064.03;5066007;28;574;-74
2021/03/16 12:08:03;;;;;;;;;;;;;;;21.78;27.43;96063.13;5065918;28;582;-74
2021/03/16 12:10:46;;;;;;;;;;;;;;;21.54;27.96;96068.16;5045837;28;827;-74
2021/03/16 12:13:30;;;;;;;;;;;;;;;21.70;27.69;96064.03;5045662;28;1609;-73
2021/03/16 12:16:14;;;;;;;;;;;;;;;21.50;28.34;96073.25;5045740;28;1025;-74
2021/03/16 12:18:58;;;;;;;;;;;;;;;21.62;27.96;96065.72;5046023;28;1574;-74
2021/03/16 12:21:42;;;;;;;;;;;;;;;21.56;28.22;96066.44;5062295;28;1260;-74
2021/03/16 12:24:26;;;;;;;;;;;;;;;22.15;27.14;96071.13;5062530;28;1960;-74
2021/03/16 12:27:10;;;;;;;;;;;;;;;22.51;26.54;96069.00;5062079;28;1525;-74
2021/03/16 12:29:54;;;;;;;;;;;;;;;22.04;27.01;96065.28;5062437;28;876;-73
2021/03/16 12:32:39;;;;;;;;;;;;;;;21.92;27.31;96080.59;5042465;28;531;-74
2021/03/16 12:35:23;;;;;;;;;;;;;;;21.74;27.59;96076.72;5042590;28;600;-74
2021/03/16 12:38:06;;;;;;;;;;;;;;;21.66;28.03;96069.91;5042334;28;599;-74
2021/03/16 12:40:50;;;;;;;;;;;;;;;21.53;28.33;96069.44;5046207;28;1617;-74
2021/03/16 12:43:34;;;;;;;;;;;;;;;21.57;28.03;96061.53;5061966;28;1901;-74
2021/03/16 12:46:20;;;;;;;;;;;;;;;21.45;28.30;96048.47;5062117;28;909;-73
2021/03/16 12:49:04;;;;;;;;;;;;;;;21.59;28.19;96047.66;5062074;28;649;-74
2021/03/16 12:51:48;;;;;;;;;;;;;;;21.73;27.98;96046.06;5061795;28;1620;-74
2021/03/16 12:54:32;;;;;;;;;;;;;;;21.74;27.60;96054.06;5061463;28;1652;-73
2021/03/16 12:57:19;;;;;;;;;;;;;;;21.67;27.86;96054.50;5061903;28;683;-74
2021/03/16 13:00:09;;;;;;;;;;;;;;;21.62;27.95;96052.34;5061776;28;765;-73
2021/03/16 13:02:53;;;;;;;;;;;;;;;22.28;26.86;96043.22;5061156;28;1898;-73
2021/03/16 13:05:37;;;;;;;;;;;;;;;22.46;26.63;96049.88;5061816;28;540;-73
2021/03/16 13:08:21;;;;;;;;;;;;;;;22.33;26.58;96041.75;5061782;28;624;-73
2021/03/16 13:11:06;;;;;;;;;;;;;;;21.71;27.59;96038.09;5061746;28;473;-74
2021/03/16 13:13:49;;;;;;;;;;;;;;;21.40;27.86;96037.84;5061359;28;2025;-74
2021/03/16 13:16:34;;;;;;;;;;;;;;;21.73;27.78;96044.03;5061520;28;920;-73
2021/03/16 13:19:18;;;;;;;;;;;;;;;21.69;27.90;96046.28;5061132;28;906;-74
2021/03/16 13:22:03;;;;;;;;;;;;;;;21.55;28.20;96042.22;5061472;28;582;-74
2021/03/16 13:24:46;;;;;;;;;;;;;;;21.64;28.02;96049.03;5041460;28;1898;-73
2021/03/16 13:27:30;;;;;;;;;;;;;;;21.51;27.94;96052.19;5041366;28;583;-74
2021/03/16 13:30:15;;;;;;;;;;;;;;;21.65;27.98;96061.91;5040151;28;652;-74
2021/03/16 13:33:00;;;;;;;;;;;;;;;21.56;28.06;96060.00;5044755;28;1558;-73
2021/03/16 13:35:43;;;;;;;;;;;;;;;21.73;27.85;96052.50;5061295;28;860;-74
2021/03/16 13:38:27;;;;;;;;;;;;;;;21.58;28.07;96046.13;5060818;28;1652;-74
2021/03/16 13:41:11;;;;;;;;;;;;;;;21.66;27.67;96058.59;5041168;28;587;-74
2021/03/16 13:43:55;;;;;;;;;;;;;;;21.63;27.81;96053.91;5041159;28;1909;-74
2021/03/16 13:46:40;;;;;;;;;;;;;;;21.58;27.93;96071.59;5041011;28;564;-74
2021/03/16 13:49:24;;;;;;;;;;;;;;;22.27;26.98;96067.16;5047022;28;1640;-74
2021/03/16 13:52:08;;;;;;;;;;;;;;;22.56;26.51;96068.28;5060933;28;935;-73
2021/03/16 13:54:52;;;;;;;;;;;;;;;22.35;26.44;96079.63;5060811;28;631;-73
2021/03/16 13:57:36;;;;;;;;;;;;;;;21.85;27.34;96065.53;5060805;28;516;-74
2021/03/16 14:00:20;;;;;;;;;;;;;;;21.76;27.63;96071.34;5060401;28;1553;-73
2021/03/16 14:03:04;;;;;;;;;;;;;;;21.72;27.48;96073.59;5048447;28;1897;-73
2021/03/16 14:05:48;;;;;;;;;;;;;;;21.73;27.47;96080.03;5060239;28;1699;-74
2021/03/16 14:08:32;;;;;;;;;;;;;;;21.56;28.00;96082.63;5040226;28;972;-74